sensor_id;sensor_type;location;lat;lon;timestamp;pressure;altitude;pressure_sealevel;temperature;humidity
41264;BME280;26998;48.714;9.414;2023-04-04T00:02:06;99581.28;;;0.22;100.00
41264;BME280;26998;48.714;9.414;2023-04-04T00:04:33;99578.53;;;0.23;100.00
41264;BME280;26998;48.714;9.414;2023-04-04T00:06:59;99572.06;;;0.16;100.00
41264;BME280;26998;48.714;9.414;2023-04-04T00:09:27;99571.69;;;0.21;100.00
41264;BME280;26998;48.714;9.414;2023-04-04T00:11:54;99572.28;;;0.13;100.00
41264;BME280;26998;48.714;9.414;2023-04-04T00:14:20;99562.88;;;0.22;100.00
41264;BME280;26998;48.714;9.414;2023-04-04T00:16:47;99556.94;;;0.31;97.90
41264;BME280;26998;48.714;9.414;2023-04-04T00:19:13;99562.16;;;0.20;98.91
41264;BME280;26998;48.714;9.414;2023-04-04T00:21:40;99556.81;;;0.33;95.36
41264;BME280;26998;48.714;9.414;2023-04-04T00:24:07;99557.41;;;0.36;94.81
41264;BME280;26998;48.714;9.414;2023-04-04T00:26:33;99552.88;;;0.50;92.40
41264;BME280;26998;48.714;9.414;2023-04-04T00:29:00;99549.97;;;0.30;93.97
41264;BME280;26998;48.714;9.414;2023-04-04T00:31:26;99545.06;;;0.26;94.41
41264;BME280;26998;48.714;9.414;2023-04-04T00:33:53;99551.41;;;0.23;93.23
41264;BME280;26998;48.714;9.414;2023-04-04T00:36:19;99547.34;;;0.19;93.65
41264;BME280;26998;48.714;9.414;2023-04-04T00:38:46;99545.63;;;0.07;95.06
41264;BME280;26998;48.714;9.414;2023-04-04T00:41:14;99545.13;;;0.02;96.50
41264;BME280;26998;48.714;9.414;2023-04-04T00:43:41;99541.19;;;0.07;94.77
41264;BME280;26998;48.714;9.414;2023-04-04T00:46:08;99545.13;;;0.02;95.30
41264;BME280;26998;48.714;9.414;2023-04-04T00:48:35;99542.47;;;0.02;95.96
41264;BME280;26998;48.714;9.414;2023-04-04T00:51:01;99543.78;;;-0.04;95.86
41264;BME280;26998;48.714;9.414;2023-04-04T00:53:28;99539.28;;;0.09;94.68
41264;BME280;26998;48.714;9.414;2023-04-04T00:55:54;99536.81;;;0.19;93.32
41264;BME280;26998;48.714;9.414;2023-04-04T00:58:22;99531.63;;;0.06;93.87
41264;BME280;26998;48.714;9.414;2023-04-04T01:00:50;99530.19;;;0.02;94.73
41264;BME280;26998;48.714;9.414;2023-04-04T01:03:17;99530.16;;;-0.09;96.30
41264;BME280;26998;48.714;9.414;2023-04-04T01:05:44;99538.06;;;-0.22;98.16
41264;BME280;26998;48.714;9.414;2023-04-04T01:08:10;99527.09;;;-0.27;99.46
41264;BME280;26998;48.714;9.414;2023-04-04T01:10:38;99529.22;;;-0.32;100.00
41264;BME280;26998;48.714;9.414;2023-04-04T01:13:05;99527.41;;;-0.32;100.00
41264;BME280;26998;48.714;9.414;2023-04-04T01:15:31;99524.19;;;-0.35;100.00
41264;BME280;26998;48.714;9.414;2023-04-04T01:18:00;99534.69;;;-0.35;100.00
41264;BME280;26998;48.714;9.414;2023-04-04T01:20:28;99520.66;;;-0.47;100.00
41264;BME280;26998;48.714;9.414;2023-04-04T01:22:58;99518.44;;;-0.40;100.00
41264;BME280;26998;48.714;9.414;2023-04-04T01:25:29;99515.53;;;-0.49;100.00
41264;BME280;26998;48.714;9.414;2023-04-04T01:27:57;99514.41;;;-0.57;100.00
41264;BME280;26998;48.714;9.414;2023-04-04T01:30:28;99522.00;;;-0.65;100.00
41264;BME280;26998;48.714;9.414;2023-04-04T01:33:24;99518.25;;;-0.74;100.00
41264;BME280;26998;48.714;9.414;2023-04-04T01:36:31;99517.94;;;-0.82;100.00
41264;BME280;26998;48.714;9.414;2023-04-04T01:39:24;99531.06;;;-0.82;100.00
41264;BME280;26998;48.714;9.414;2023-04-04T01:41:54;99521.00;;;-0.88;100.00
41264;BME280;26998;48.714;9.414;2023-04-04T01:44:22;99529.31;;;-0.95;100.00
41264;BME280;26998;48.714;9.414;2023-04-04T01:46:53;99529.66;;;-0.99;100.00
41264;BME280;26998;48.714;9.414;2023-04-04T01:49:20;99523.78;;;-1.03;100.00
41264;BME280;26998;48.714;9.414;2023-04-04T01:51:47;99537.22;;;-1.07;100.00
41264;BME280;26998;48.714;9.414;2023-04-04T01:54:15;99533.34;;;-1.14;100.00
41264;BME280;26998;48.714;9.414;2023-04-04T01:56:41;99541.66;;;-1.21;100.00
41264;BME280;26998;48.714;9.414;2023-04-04T01:59:07;99540.59;;;-1.18;100.00
41264;BME280;26998;48.714;9.414;2023-04-04T02:01:34;99537.63;;;-1.13;100.00
41264;BME280;26998;48.714;9.414;2023-04-04T02:04:01;99537.13;;;-1.19;100.00
41264;BME280;26998;48.714;9.414;2023-04-04T02:06:27;99540.50;;;-1.29;100.00
41264;BME280;26998;48.714;9.414;2023-04-04T02:08:54;99548.97;;;-1.26;100.00
41264;BME280;26998;48.714;9.414;2023-04-04T02:11:21;99548.69;;;-1.34;100.00
41264;BME280;26998;48.714;9.414;2023-04-04T02:13:48;99555.19;;;-1.40;100.00
41264;BME280;26998;48.714;9.414;2023-04-04T02:16:15;99557.06;;;-1.42;100.00
41264;BME280;26998;48.714;9.414;2023-04-04T02:18:41;99554.78;;;-1.46;100.00
41264;BME280;26998;48.714;9.414;2023-04-04T02:21:08;99559.47;;;-1.51;100.00
41264;BME280;26998;48.714;9.414;2023-04-04T02:23:35;99556.03;;;-1.52;100.00
41264;BME280;26998;48.714;9.414;2023-04-04T02:26:02;99553.91;;;-1.47;100.00
41264;BME280;26998;48.714;9.414;2023-04-04T02:28:29;99562.63;;;-1.46;100.00
41264;BME280;26998;48.714;9.414;2023-04-04T02:31:00;99555.06;;;-1.51;100.00
41264;BME280;26998;48.714;9.414;2023-04-04T02:33:26;99554.31;;;-1.53;100.00
41264;BME280;26998;48.714;9.414;2023-04-04T02:35:57;99558.66;;;-1.52;100.00
41264;BME280;26998;48.714;9.414;2023-04-04T02:38:24;99569.97;;;-1.51;100.00
41264;BME280;26998;48.714;9.414;2023-04-04T02:40:51;99581.50;;;-1.54;100.00
41264;BME280;26998;48.714;9.414;2023-04-04T02:43:18;99592.19;;;-1.57;100.00
41264;BME280;26998;48.714;9.414;2023-04-04T02:45:47;99608.88;;;-1.58;100.00
41264;BME280;26998;48.714;9.414;2023-04-04T02:48:13;99617.84;;;-1.62;100.00
41264;BME280;26998;48.714;9.414;2023-04-04T02:50:40;99632.44;;;-1.71;100.00
41264;BME280;26998;48.714;9.414;2023-04-04T02:53:07;99637.25;;;-1.77;100.00
41264;BME280;26998;48.714;9.414;2023-04-04T02:55:34;99653.16;;;-1.80;100.00
41264;BME280;26998;48.714;9.414;2023-04-04T02:58:00;99658.69;;;-1.85;100.00
41264;BME280;26998;48.714;9.414;2023-04-04T03:00:27;99668.72;;;-1.92;100.00
41264;BME280;26998;48.714;9.414;2023-04-04T03:02:54;99678.81;;;-1.86;100.00
41264;BME280;26998;48.714;9.414;2023-04-04T03:05:25;99681.19;;;-1.95;100.00
41264;BME280;26998;48.714;9.414;2023-04-04T03:07:57;99692.88;;;-2.01;100.00
41264;BME280;26998;48.714;9.414;2023-04-04T03:10:25;99692.88;;;-2.01;100.00
41264;BME280;26998;48.714;9.414;2023-04-04T03:12:51;99691.22;;;-2.02;100.00
41264;BME280;26998;48.714;9.414;2023-04-04T03:15:18;99688.78;;;-2.05;100.00
41264;BME280;26998;48.714;9.414;2023-04-04T03:17:45;99678.00;;;-2.00;100.00
41264;BME280;26998;48.714;9.414;2023-04-04T03:20:12;99660.69;;;-2.03;100.00
41264;BME280;26998;48.714;9.414;2023-04-04T03:22:40;99648.56;;;-2.04;100.00
41264;BME280;26998;48.714;9.414;2023-04-04T03:25:07;99633.03;;;-2.07;100.00
41264;BME280;26998;48.714;9.414;2023-04-04T03:27:34;99627.59;;;-2.04;100.00
41264;BME280;26998;48.714;9.414;2023-04-04T03:30:01;99641.06;;;-1.96;100.00
41264;BME280;26998;48.714;9.414;2023-04-04T03:32:27;99670.06;;;-1.99;100.00
41264;BME280;26998;48.714;9.414;2023-04-04T03:34:54;99682.91;;;-2.08;100.00
41264;BME280;26998;48.714;9.414;2023-04-04T03:37:21;99697.88;;;-2.11;100.00
41264;BME280;26998;48.714;9.414;2023-04-04T03:39:47;99693.84;;;-2.16;100.00
41264;BME280;26998;48.714;9.414;2023-04-04T03:42:14;99706.94;;;-2.16;100.00
41264;BME280;26998;48.714;9.414;2023-04-04T03:44:41;99717.16;;;-2.26;100.00
41264;BME280;26998;48.714;9.414;2023-04-04T03:47:08;99733.34;;;-2.19;100.00
41264;BME280;26998;48.714;9.414;2023-04-04T03:49:34;99733.78;;;-2.13;100.00
41264;BME280;26998;48.714;9.414;2023-04-04T03:52:01;99725.47;;;-2.19;100.00
41264;BME280;26998;48.714;9.414;2023-04-04T03:54:27;99737.94;;;-2.23;100.00
41264;BME280;26998;48.714;9.414;2023-04-04T03:56:55;99738.94;;;-2.25;100.00
41264;BME280;26998;48.714;9.414;2023-04-04T03:59:22;99746.16;;;-2.29;100.00
41264;BME280;26998;48.714;9.414;2023-04-04T04:01:49;99745.59;;;-2.34;100.00
41264;BME280;26998;48.714;9.414;2023-04-04T04:04:15;99758.41;;;-2.44;100.00
41264;BME280;26998;48.714;9.414;2023-04-04T04:06:42;99763.81;;;-2.47;100.00
41264;BME280;26998;48.714;9.414;2023-04-04T04:09:08;99761.69;;;-2.54;100.00
41264;BME280;26998;48.714;9.414;2023-04-04T04:11:35;99766.91;;;-2.54;100.00
41264;BME280;26998;48.714;9.414;2023-04-04T04:14:02;99775.69;;;-2.56;100.00
41264;BME280;26998;48.714;9.414;2023-04-04T04:16:28;99771.50;;;-2.58;100.00
41264;BME280;26998;48.714;9.414;2023-04-04T04:18:56;99760.09;;;-2.57;100.00
41264;BME280;26998;48.714;9.414;2023-04-04T04:21:23;99762.06;;;-2.61;100.00
41264;BME280;26998;48.714;9.414;2023-04-04T04:23:50;99758.50;;;-2.60;100.00
41264;BME280;26998;48.714;9.414;2023-04-04T04:26:16;99755.81;;;-2.58;100.00
41264;BME280;26998;48.714;9.414;2023-04-04T04:28:45;99751.41;;;-2.58;100.00
41264;BME280;26998;48.714;9.414;2023-04-04T04:31:12;99756.53;;;-2.56;100.00
41264;BME280;26998;48.714;9.414;2023-04-04T04:33:39;99759.34;;;-2.59;100.00
41264;BME280;26998;48.714;9.414;2023-04-04T04:36:05;99757.47;;;-2.57;100.00
41264;BME280;26998;48.714;9.414;2023-04-04T04:38:32;99752.53;;;-2.62;100.00
41264;BME280;26998;48.714;9.414;2023-04-04T04:40:59;99754.75;;;-2.70;100.00
41264;BME280;26998;48.714;9.414;2023-04-04T04:43:26;99751.56;;;-2.75;100.00
41264;BME280;26998;48.714;9.414;2023-04-04T04:45:53;99755.13;;;-2.76;100.00
41264;BME280;26998;48.714;9.414;2023-04-04T04:48:19;99767.19;;;-2.73;100.00
41264;BME280;26998;48.714;9.414;2023-04-04T04:50:46;99779.50;;;-2.75;100.00
41264;BME280;26998;48.714;9.414;2023-04-04T04:53:13;99765.00;;;-2.81;100.00
41264;BME280;26998;48.714;9.414;2023-04-04T04:55:40;99775.28;;;-2.78;100.00
41264;BME280;26998;48.714;9.414;2023-04-04T04:58:06;99764.00;;;-2.79;100.00
41264;BME280;26998;48.714;9.414;2023-04-04T05:00:33;99758.56;;;-2.75;100.00
41264;BME280;26998;48.714;9.414;2023-04-04T05:03:00;99750.16;;;-2.81;100.00
41264;BME280;26998;48.714;9.414;2023-04-04T05:05:27;99747.44;;;-2.79;100.00
41264;BME280;26998;48.714;9.414;2023-04-04T05:07:54;99747.44;;;-2.79;100.00
41264;BME280;26998;48.714;9.414;2023-04-04T05:10:20;99750.47;;;-2.71;100.00
41264;BME280;26998;48.714;9.414;2023-04-04T05:12:47;99744.66;;;-2.76;100.00
41264;BME280;26998;48.714;9.414;2023-04-04T05:15:14;99747.16;;;-2.74;100.00
41264;BME280;26998;48.714;9.414;2023-04-04T05:17:40;99746.25;;;-2.73;100.00
41264;BME280;26998;48.714;9.414;2023-04-04T05:20:07;99741.66;;;-2.70;100.00
41264;BME280;26998;48.714;9.414;2023-04-04T05:22:34;99736.25;;;-2.67;100.00
41264;BME280;26998;48.714;9.414;2023-04-04T05:25:00;99732.25;;;-2.58;100.00
41264;BME280;26998;48.714;9.414;2023-04-04T05:27:27;99734.69;;;-2.55;100.00
41264;BME280;26998;48.714;9.414;2023-04-04T05:29:54;99737.09;;;-2.52;100.00
41264;BME280;26998;48.714;9.414;2023-04-04T05:32:21;99733.53;;;-2.51;100.00
41264;BME280;26998;48.714;9.414;2023-04-04T05:34:48;99736.94;;;-2.49;100.00
41264;BME280;26998;48.714;9.414;2023-04-04T05:37:14;99738.69;;;-2.49;100.00
41264;BME280;26998;48.714;9.414;2023-04-04T05:39:40;99744.09;;;-2.52;100.00
41264;BME280;26998;48.714;9.414;2023-04-04T05:42:07;99745.63;;;-2.48;100.00
41264;BME280;26998;48.714;9.414;2023-04-04T05:44:34;99750.00;;;-2.49;100.00
41264;BME280;26998;48.714;9.414;2023-04-04T05:47:01;99749.06;;;-2.48;100.00
41264;BME280;26998;48.714;9.414;2023-04-04T05:49:27;99755.41;;;-2.38;100.00
41264;BME280;26998;48.714;9.414;2023-04-04T05:51:54;99759.13;;;-2.27;100.00
41264;BME280;26998;48.714;9.414;2023-04-04T05:54:21;99746.03;;;-2.27;100.00
41264;BME280;26998;48.714;9.414;2023-04-04T05:56:47;99740.25;;;-2.18;100.00
41264;BME280;26998;48.714;9.414;2023-04-04T05:59:14;99737.81;;;-2.07;100.00
41264;BME280;26998;48.714;9.414;2023-04-04T06:01:41;99732.75;;;-1.96;100.00
41264;BME280;26998;48.714;9.414;2023-04-04T06:04:08;99728.69;;;-1.87;100.00
41264;BME280;26998;48.714;9.414;2023-04-04T06:06:35;99733.25;;;-1.76;100.00
41264;BME280;26998;48.714;9.414;2023-04-04T06:09:01;99713.34;;;-1.66;100.00
41264;BME280;26998;48.714;9.414;2023-04-04T06:11:28;99705.97;;;-1.47;100.00
41264;BME280;26998;48.714;9.414;2023-04-04T06:13:55;99688.31;;;-1.30;100.00
41264;BME280;26998;48.714;9.414;2023-04-04T06:16:21;99677.28;;;-1.23;100.00
41264;BME280;26998;48.714;9.414;2023-04-04T06:18:48;99667.63;;;-1.09;100.00
41264;BME280;26998;48.714;9.414;2023-04-04T06:21:15;99652.44;;;-0.91;100.00
41264;BME280;26998;48.714;9.414;2023-04-04T06:23:41;99622.91;;;-0.70;100.00
41264;BME280;26998;48.714;9.414;2023-04-04T06:26:08;99606.84;;;-0.65;100.00
41264;BME280;26998;48.714;9.414;2023-04-04T06:28:46;99600.00;;;-0.55;100.00
41264;BME280;26998;48.714;9.414;2023-04-04T06:31:12;99590.19;;;-0.40;100.00
41264;BME280;26998;48.714;9.414;2023-04-04T06:33:39;99585.50;;;-0.24;100.00
41264;BME280;26998;48.714;9.414;2023-04-04T06:36:05;99568.47;;;-0.07;100.00
41264;BME280;26998;48.714;9.414;2023-04-04T06:38:32;99565.91;;;0.05;100.00
41264;BME280;26998;48.714;9.414;2023-04-04T06:40:58;99557.63;;;0.22;100.00
41264;BME280;26998;48.714;9.414;2023-04-04T06:43:25;99546.78;;;0.38;100.00
41264;BME280;26998;48.714;9.414;2023-04-04T06:45:54;99549.34;;;0.73;100.00
41264;BME280;26998;48.714;9.414;2023-04-04T06:48:20;99544.81;;;0.75;100.00
41264;BME280;26998;48.714;9.414;2023-04-04T06:50:47;99548.72;;;0.81;100.00
41264;BME280;26998;48.714;9.414;2023-04-04T06:53:13;99548.28;;;1.09;100.00
41264;BME280;26998;48.714;9.414;2023-04-04T06:55:40;99541.19;;;0.99;97.34
41264;BME280;26998;48.714;9.414;2023-04-04T06:58:06;99545.16;;;1.04;96.13
41264;BME280;26998;48.714;9.414;2023-04-04T07:00:33;99537.03;;;1.07;93.09
41264;BME280;26998;48.714;9.414;2023-04-04T07:02:59;99543.09;;;1.30;91.03
41264;BME280;26998;48.714;9.414;2023-04-04T07:05:26;99531.09;;;1.49;92.62
41264;BME280;26998;48.714;9.414;2023-04-04T07:07:54;99530.91;;;1.61;90.48
41264;BME280;26998;48.714;9.414;2023-04-04T07:10:21;99539.03;;;1.81;88.88
41264;BME280;26998;48.714;9.414;2023-04-04T07:12:49;99539.06;;;1.70;84.12
41264;BME280;26998;48.714;9.414;2023-04-04T07:15:16;99531.88;;;1.72;82.60
41264;BME280;26998;48.714;9.414;2023-04-04T07:17:42;99540.06;;;1.90;81.13
41264;BME280;26998;48.714;9.414;2023-04-04T07:20:09;99534.84;;;1.78;80.90
41264;BME280;26998;48.714;9.414;2023-04-04T07:22:40;99528.31;;;1.94;80.71
41264;BME280;26998;48.714;9.414;2023-04-04T07:25:07;99540.03;;;2.22;76.06
41264;BME280;26998;48.714;9.414;2023-04-04T07:27:37;99543.03;;;1.96;73.44
41264;BME280;26998;48.714;9.414;2023-04-04T07:30:04;99552.31;;;2.33;70.81
41264;BME280;26998;48.714;9.414;2023-04-04T07:32:30;99544.16;;;2.36;69.13
41264;BME280;26998;48.714;9.414;2023-04-04T07:34:58;99543.38;;;2.24;69.13
41264;BME280;26998;48.714;9.414;2023-04-04T07:37:24;99545.69;;;2.59;68.87
41264;BME280;26998;48.714;9.414;2023-04-04T07:39:51;99553.88;;;2.56;65.49
41264;BME280;26998;48.714;9.414;2023-04-04T07:42:18;99553.34;;;2.62;65.75
41264;BME280;26998;48.714;9.414;2023-04-04T07:44:44;99551.44;;;2.95;64.49
41264;BME280;26998;48.714;9.414;2023-04-04T07:47:11;99548.22;;;2.91;62.26
41264;BME280;26998;48.714;9.414;2023-04-04T07:49:37;99553.66;;;2.90;63.54
41264;BME280;26998;48.714;9.414;2023-04-04T07:52:04;99547.00;;;3.05;63.93
41264;BME280;26998;48.714;9.414;2023-04-04T07:54:31;99539.78;;;3.47;60.03
41264;BME280;26998;48.714;9.414;2023-04-04T07:56:58;99547.59;;;3.49;59.75
41264;BME280;26998;48.714;9.414;2023-04-04T07:59:24;99549.28;;;3.79;61.52
41264;BME280;26998;48.714;9.414;2023-04-04T08:01:51;99543.44;;;3.76;58.76
41264;BME280;26998;48.714;9.414;2023-04-04T08:04:17;99541.91;;;3.63;59.27
41264;BME280;26998;48.714;9.414;2023-04-04T08:06:44;99539.53;;;3.80;56.56
41264;BME280;26998;48.714;9.414;2023-04-04T08:09:13;99543.75;;;4.11;55.39
41264;BME280;26998;48.714;9.414;2023-04-04T08:11:40;99545.84;;;4.18;55.86
41264;BME280;26998;48.714;9.414;2023-04-04T08:14:07;99546.91;;;4.44;54.79
41264;BME280;26998;48.714;9.414;2023-04-04T08:16:33;99544.84;;;4.28;55.14
41264;BME280;26998;48.714;9.414;2023-04-04T08:19:01;99545.13;;;4.15;54.78
41264;BME280;26998;48.714;9.414;2023-04-04T08:21:27;99549.56;;;3.96;55.19
41264;BME280;26998;48.714;9.414;2023-04-04T08:23:54;99541.50;;;4.26;54.27
41264;BME280;26998;48.714;9.414;2023-04-04T08:26:22;99533.00;;;4.23;53.36
41264;BME280;26998;48.714;9.414;2023-04-04T08:28:49;99544.69;;;4.39;53.75
41264;BME280;26998;48.714;9.414;2023-04-04T08:31:16;99542.50;;;4.15;53.10
41264;BME280;26998;48.714;9.414;2023-04-04T08:33:43;99541.66;;;4.81;53.24
41264;BME280;26998;48.714;9.414;2023-04-04T08:36:13;99541.84;;;4.60;53.06
41264;BME280;26998;48.714;9.414;2023-04-04T08:38:39;99540.38;;;5.23;50.87
41264;BME280;26998;48.714;9.414;2023-04-04T08:41:06;99542.59;;;5.55;49.23
41264;BME280;26998;48.714;9.414;2023-04-04T08:43:33;99539.31;;;5.43;47.87
41264;BME280;26998;48.714;9.414;2023-04-04T08:46:03;99541.13;;;5.61;48.69
41264;BME280;26998;48.714;9.414;2023-04-04T08:48:31;99547.38;;;5.42;48.60
41264;BME280;26998;48.714;9.414;2023-04-04T08:50:59;99537.84;;;5.76;46.91
41264;BME280;26998;48.714;9.414;2023-04-04T08:53:27;99545.34;;;5.08;46.99
41264;BME280;26998;48.714;9.414;2023-04-04T08:55:55;99541.69;;;4.72;49.08
41264;BME280;26998;48.714;9.414;2023-04-04T08:58:25;99540.25;;;4.87;49.25
41264;BME280;26998;48.714;9.414;2023-04-04T09:00:53;99539.75;;;4.74;48.50
41264;BME280;26998;48.714;9.414;2023-04-04T09:03:24;99548.47;;;4.94;49.15
41264;BME280;26998;48.714;9.414;2023-04-04T09:05:54;99539.72;;;5.48;46.40
41264;BME280;26998;48.714;9.414;2023-04-04T09:08:22;99541.38;;;4.84;47.40
41264;BME280;26998;48.714;9.414;2023-04-04T09:10:49;99549.59;;;5.19;46.97
41264;BME280;26998;48.714;9.414;2023-04-04T09:13:16;99537.72;;;6.14;45.29
41264;BME280;26998;48.714;9.414;2023-04-04T09:15:52;99549.50;;;5.84;46.36
41264;BME280;26998;48.714;9.414;2023-04-04T09:18:22;99538.44;;;5.88;45.60
41264;BME280;26998;48.714;9.414;2023-04-04T09:20:49;99537.75;;;5.68;45.37
41264;BME280;26998;48.714;9.414;2023-04-04T09:23:17;99545.53;;;5.24;46.19
41264;BME280;26998;48.714;9.414;2023-04-04T09:25:48;99540.63;;;5.02;47.18
41264;BME280;26998;48.714;9.414;2023-04-04T09:28:21;99545.06;;;5.01;47.63
41264;BME280;26998;48.714;9.414;2023-04-04T09:30:48;99540.78;;;5.55;46.26
41264;BME280;26998;48.714;9.414;2023-04-04T09:33:16;99539.69;;;6.30;45.35
41264;BME280;26998;48.714;9.414;2023-04-04T09:36:05;99536.25;;;6.63;44.42
41264;BME280;26998;48.714;9.414;2023-04-04T09:38:35;99539.31;;;6.51;43.08
41264;BME280;26998;48.714;9.414;2023-04-04T09:41:05;99530.59;;;6.84;43.70
41264;BME280;26998;48.714;9.414;2023-04-04T09:43:32;99536.97;;;7.00;42.35
41264;BME280;26998;48.714;9.414;2023-04-04T09:46:02;99539.88;;;6.80;43.13
41264;BME280;26998;48.714;9.414;2023-04-04T09:48:30;99542.91;;;6.93;40.75
41264;BME280;26998;48.714;9.414;2023-04-04T09:50:57;99555.31;;;7.11;42.26
41264;BME280;26998;48.714;9.414;2023-04-04T09:53:24;99541.06;;;6.86;42.82
41264;BME280;26998;48.714;9.414;2023-04-04T09:55:53;99532.13;;;7.29;42.81
41264;BME280;26998;48.714;9.414;2023-04-04T09:58:27;99539.25;;;7.71;41.35
41264;BME280;26998;48.714;9.414;2023-04-04T10:00:58;99534.81;;;6.43;43.34
41264;BME280;26998;48.714;9.414;2023-04-04T10:03:26;99532.34;;;6.50;43.36
41264;BME280;26998;48.714;9.414;2023-04-04T10:06:04;99532.84;;;6.45;43.25
41264;BME280;26998;48.714;9.414;2023-04-04T10:08:36;99526.88;;;6.07;43.69
41264;BME280;26998;48.714;9.414;2023-04-04T10:11:05;99530.69;;;6.48;42.55
41264;BME280;26998;48.714;9.414;2023-04-04T10:13:38;99531.47;;;6.93;41.40
41264;BME280;26998;48.714;9.414;2023-04-04T10:16:06;99529.94;;;6.82;42.71
41264;BME280;26998;48.714;9.414;2023-04-04T10:18:33;99517.69;;;6.19;43.00
41264;BME280;26998;48.714;9.414;2023-04-04T10:21:05;99520.31;;;6.63;42.98
41264;BME280;26998;48.714;9.414;2023-04-04T10:23:35;99521.19;;;7.32;42.38
41264;BME280;26998;48.714;9.414;2023-04-04T10:26:02;99517.84;;;6.62;43.14
41264;BME280;26998;48.714;9.414;2023-04-04T10:28:28;99520.28;;;7.15;41.66
41264;BME280;26998;48.714;9.414;2023-04-04T10:36:42;99520.63;;;7.21;41.75
41264;BME280;26998;48.714;9.414;2023-04-04T10:39:13;99513.16;;;6.56;41.78
41264;BME280;26998;48.714;9.414;2023-04-04T10:41:40;99510.22;;;6.93;41.97
41264;BME280;26998;48.714;9.414;2023-04-04T10:44:27;99510.13;;;6.77;41.51
41264;BME280;26998;48.714;9.414;2023-04-04T10:46:56;99511.41;;;7.07;41.79
41264;BME280;26998;48.714;9.414;2023-04-04T10:49:26;99503.16;;;7.60;41.96
41264;BME280;26998;48.714;9.414;2023-04-04T10:51:53;99513.53;;;7.29;41.40
41264;BME280;26998;48.714;9.414;2023-04-04T10:54:24;99509.38;;;8.10;38.30
41264;BME280;26998;48.714;9.414;2023-04-04T10:56:52;99509.44;;;6.75;39.15
41264;BME280;26998;48.714;9.414;2023-04-04T10:59:20;99498.63;;;7.02;40.50
41264;BME280;26998;48.714;9.414;2023-04-04T11:01:54;99502.16;;;7.70;39.04
41264;BME280;26998;48.714;9.414;2023-04-04T11:04:29;99498.13;;;7.49;39.19
41264;BME280;26998;48.714;9.414;2023-04-04T11:10:08;99493.03;;;7.97;39.79
41264;BME280;26998;48.714;9.414;2023-04-04T11:12:43;99497.22;;;8.48;37.85
41264;BME280;26998;48.714;9.414;2023-04-04T11:15:12;99473.06;;;6.75;39.81
41264;BME280;26998;48.714;9.414;2023-04-04T11:17:49;99468.25;;;7.63;39.68
41264;BME280;26998;48.714;9.414;2023-04-04T11:20:19;99485.47;;;7.43;39.71
41264;BME280;26998;48.714;9.414;2023-04-04T11:23:03;99489.06;;;8.42;37.87
41264;BME280;26998;48.714;9.414;2023-04-04T11:25:32;99483.84;;;8.56;37.58
41264;BME280;26998;48.714;9.414;2023-04-04T11:28:14;99484.03;;;8.30;38.17
41264;BME280;26998;48.714;9.414;2023-04-04T11:34:09;99499.72;;;8.17;37.74
41264;BME280;26998;48.714;9.414;2023-04-04T11:39:07;99476.56;;;8.50;36.76
41264;BME280;26998;48.714;9.414;2023-04-04T11:44:18;99484.72;;;8.57;36.69
41264;BME280;26998;48.714;9.414;2023-04-04T11:46:45;99474.59;;;8.44;37.96
41264;BME280;26998;48.714;9.414;2023-04-04T11:49:16;99454.44;;;7.76;38.47
41264;BME280;26998;48.714;9.414;2023-04-04T11:51:44;99470.75;;;7.90;37.94
41264;BME280;26998;48.714;9.414;2023-04-04T11:54:15;99468.69;;;7.43;37.71
41264;BME280;26998;48.714;9.414;2023-04-04T11:56:43;99459.69;;;7.44;38.04
41264;BME280;26998;48.714;9.414;2023-04-04T12:01:38;99466.09;;;8.00;38.71
41264;BME280;26998;48.714;9.414;2023-04-04T12:04:05;99460.81;;;7.25;38.94
41264;BME280;26998;48.714;9.414;2023-04-04T12:06:32;99456.94;;;7.70;37.18
41264;BME280;26998;48.714;9.414;2023-04-04T12:09:04;99457.94;;;7.10;39.12
41264;BME280;26998;48.714;9.414;2023-04-04T12:11:36;99456.50;;;7.32;39.87
41264;BME280;26998;48.714;9.414;2023-04-04T12:14:02;99465.41;;;7.06;37.92
41264;BME280;26998;48.714;9.414;2023-04-04T12:16:29;99463.00;;;6.87;38.27
41264;BME280;26998;48.714;9.414;2023-04-04T12:19:00;99449.28;;;7.91;38.34
41264;BME280;26998;48.714;9.414;2023-04-04T12:21:30;99452.06;;;8.63;37.22
41264;BME280;26998;48.714;9.414;2023-04-04T12:23:56;99458.31;;;8.87;36.95
41264;BME280;26998;48.714;9.414;2023-04-04T12:26:24;99458.94;;;8.41;36.05
41264;BME280;26998;48.714;9.414;2023-04-04T12:28:51;99446.41;;;8.66;36.24
41264;BME280;26998;48.714;9.414;2023-04-04T12:31:17;99460.50;;;8.83;35.27
41264;BME280;26998;48.714;9.414;2023-04-04T12:33:47;99448.13;;;8.02;36.02
41264;BME280;26998;48.714;9.414;2023-04-04T12:36:13;99454.94;;;8.29;35.42
41264;BME280;26998;48.714;9.414;2023-04-04T12:39:09;99461.25;;;8.12;34.61
41264;BME280;26998;48.714;9.414;2023-04-04T12:41:46;99456.13;;;8.10;34.59
41264;BME280;26998;48.714;9.414;2023-04-04T12:44:30;99450.09;;;8.32;35.99
41264;BME280;26998;48.714;9.414;2023-04-04T12:46:58;99441.47;;;8.06;35.89
41264;BME280;26998;48.714;9.414;2023-04-04T12:49:30;99437.13;;;8.29;35.09
41264;BME280;26998;48.714;9.414;2023-04-04T12:51:58;99436.25;;;8.37;35.06
41264;BME280;26998;48.714;9.414;2023-04-04T12:54:26;99427.84;;;9.12;34.75
41264;BME280;26998;48.714;9.414;2023-04-04T12:56:54;99432.16;;;8.02;35.03
41264;BME280;26998;48.714;9.414;2023-04-04T12:59:27;99429.31;;;7.71;35.23
41264;BME280;26998;48.714;9.414;2023-04-04T13:01:55;99416.97;;;8.35;35.86
41264;BME280;26998;48.714;9.414;2023-04-04T13:04:22;99414.00;;;8.14;36.53
41264;BME280;26998;48.714;9.414;2023-04-04T13:06:50;99425.13;;;8.33;35.46
41264;BME280;26998;48.714;9.414;2023-04-04T13:09:21;99425.38;;;8.71;34.43
41264;BME280;26998;48.714;9.414;2023-04-04T13:11:59;99420.59;;;8.59;34.27
41264;BME280;26998;48.714;9.414;2023-04-04T13:15:12;99411.72;;;8.74;34.36
41264;BME280;26998;48.714;9.414;2023-04-04T13:17:13;99405.88;;;7.82;35.95
41264;BME280;26998;48.714;9.414;2023-04-04T13:19:40;99415.53;;;8.72;35.41
41264;BME280;26998;48.714;9.414;2023-04-04T13:22:08;99415.38;;;8.73;35.33
41264;BME280;26998;48.714;9.414;2023-04-04T13:24:34;99407.22;;;9.06;34.03
41264;BME280;26998;48.714;9.414;2023-04-04T13:27:01;99401.09;;;8.66;34.69
41264;BME280;26998;48.714;9.414;2023-04-04T13:29:27;99409.63;;;8.93;35.47